createdAt,value
2022-10-22T00:00:02.674Z,97.96
2022-10-22T00:01:02.552Z,97.86
2022-10-22T00:02:02.818Z,97.76
2022-10-22T00:03:03.409Z,98.37
2022-10-22T00:04:03.271Z,98.68
2022-10-22T00:05:03.315Z,98.88
2022-10-22T00:06:03.159Z,98.77
2022-10-22T00:07:02.967Z,98.57
2022-10-22T00:08:03.501Z,98.47
2022-10-22T00:09:03.042Z,98.22
2022-10-22T00:10:03.142Z,99.18
2022-10-22T00:11:03.534Z,99.38
2022-10-22T00:12:03.197Z,99.69
2022-10-22T00:13:03.654Z,99.64
2022-10-22T00:14:03.557Z,99.54
2022-10-22T00:15:03.494Z,99.85
2022-10-22T00:16:03.475Z,99.99
2022-10-22T00:17:04.238Z,99.99
2022-10-22T00:18:03.775Z,99.99
2022-10-22T00:19:03.411Z,99.99
2022-10-22T00:20:03.511Z,99.99
2022-10-22T00:21:03.503Z,99.99
2022-10-22T00:22:03.321Z,99.99
2022-10-22T00:23:03.327Z,99.99
2022-10-22T00:24:03.747Z,99.99
2022-10-22T00:25:03.861Z,99.99
2022-10-22T00:26:03.582Z,99.99
2022-10-22T00:27:03.483Z,99.89
2022-10-22T00:28:03.313Z,99.99
2022-10-22T00:29:03.574Z,99.99
2022-10-22T00:30:03.464Z,99.69
2022-10-22T00:31:03.837Z,99.89
2022-10-22T00:32:02.826Z,99.74
2022-10-22T00:33:02.868Z,99.99
2022-10-22T00:34:03.027Z,99.99
2022-10-22T00:35:02.624Z,99.99
2022-10-22T00:36:02.690Z,99.99
2022-10-22T00:37:03.479Z,99.99
2022-10-22T00:38:03.579Z,99.99
2022-10-22T00:39:03.446Z,99.99
2022-10-22T00:40:03.591Z,99.99
2022-10-22T00:41:03.642Z,99.99
2022-10-22T00:42:03.601Z,99.99
2022-10-22T00:43:03.599Z,99.99
2022-10-22T00:44:03.787Z,99.99
2022-10-22T00:45:03.689Z,99.99
2022-10-22T00:46:03.897Z,99.99
2022-10-22T00:47:03.020Z,99.99
2022-10-22T00:48:02.878Z,99.99
2022-10-22T00:49:03.515Z,99.99
2022-10-22T00:51:03.496Z,99.99
2022-10-22T00:52:02.955Z,99.99
2022-10-22T00:53:03.337Z,99.99
2022-10-22T00:54:03.165Z,99.99
2022-10-22T00:55:02.992Z,99.99
2022-10-22T00:56:03.312Z,99.99
2022-10-22T00:57:03.487Z,99.99
2022-10-22T00:58:03.399Z,99.99
2022-10-22T00:59:03.539Z,99.99
2022-10-22T01:00:03.012Z,99.99
2022-10-22T01:01:03.642Z,99.99
2022-10-22T01:02:02.377Z,99.99
2022-10-22T01:03:02.686Z,99.99
2022-10-22T01:04:02.705Z,99.99
2022-10-22T01:05:02.565Z,99.99
2022-10-22T01:06:02.265Z,99.99
2022-10-22T01:07:02.842Z,99.91
2022-10-22T01:08:03.260Z,99.70
2022-10-22T01:09:02.695Z,99.66
2022-10-22T01:10:02.725Z,99.46
2022-10-22T01:11:02.590Z,99.05
2022-10-22T01:12:02.168Z,98.74
2022-10-22T01:13:02.122Z,98.69
2022-10-22T01:14:02.028Z,99.19
2022-10-22T01:15:02.222Z,99.60
2022-10-22T01:16:02.073Z,99.91
2022-10-22T01:17:02.849Z,99.40
2022-10-22T01:18:02.534Z,98.99
2022-10-22T01:19:02.352Z,99.19
2022-10-22T01:20:02.892Z,99.40
2022-10-22T01:21:02.689Z,99.30
2022-10-22T01:22:01.959Z,99.10
2022-10-22T01:23:02.533Z,99.15
2022-10-22T01:24:02.327Z,98.65
2022-10-22T01:25:02.258Z,98.54
2022-10-22T01:26:02.108Z,98.95
2022-10-22T01:27:02.871Z,99.30
2022-10-22T01:28:02.770Z,99.60
2022-10-22T01:29:02.322Z,99.99
2022-10-22T01:30:02.682Z,99.91
2022-10-22T01:31:02.554Z,99.60
2022-10-22T01:32:03.083Z,99.35
2022-10-22T01:33:02.826Z,98.74
2022-10-22T01:34:03.383Z,98.85
2022-10-22T01:35:02.874Z,98.65
2022-10-22T01:36:02.711Z,98.65
2022-10-22T01:37:03.172Z,98.74
2022-10-22T01:38:03.017Z,99.40
2022-10-22T01:39:03.481Z,99.91
2022-10-22T01:40:02.871Z,99.99
2022-10-22T01:41:02.846Z,99.99
2022-10-22T01:42:01.926Z,99.99
2022-10-22T01:43:02.550Z,99.99
2022-10-22T01:44:02.421Z,99.50
2022-10-22T01:45:01.903Z,99.30
2022-10-22T01:46:02.374Z,99.35
2022-10-22T01:47:02.800Z,99.35
2022-10-22T01:48:02.796Z,98.85
2022-10-22T01:49:03.034Z,98.44
2022-10-22T01:50:02.884Z,98.54
2022-10-22T01:51:02.570Z,99.35
2022-10-22T01:52:02.713Z,99.76
2022-10-22T01:53:02.219Z,99.76
2022-10-22T01:54:02.722Z,99.55
2022-10-22T01:55:02.284Z,98.60
2022-10-22T01:56:02.173Z,99.55
2022-10-22T01:57:02.676Z,99.81
2022-10-22T01:58:02.668Z,99.99
2022-10-22T01:59:02.536Z,99.81
2022-10-22T02:00:02.631Z,99.81
2022-10-22T02:01:02.570Z,99.61
2022-10-22T02:02:03.200Z,99.99
2022-10-22T02:03:02.947Z,99.99
2022-10-22T02:04:02.892Z,99.99
2022-10-22T02:05:02.747Z,99.99
2022-10-22T02:06:03.265Z,99.99
2022-10-22T02:07:03.833Z,99.99
2022-10-22T02:08:03.309Z,99.99
2022-10-22T02:09:03.554Z,99.96
2022-10-22T02:10:03.566Z,99.96
2022-10-22T02:11:03.305Z,99.96
2022-10-22T02:12:03.070Z,99.86
2022-10-22T02:13:02.573Z,99.76
2022-10-22T02:14:02.667Z,99.86
2022-10-22T02:15:02.548Z,99.76
2022-10-22T02:16:02.456Z,99.86
2022-10-22T02:17:03.051Z,99.99
2022-10-22T02:18:02.643Z,99.99
2022-10-22T02:19:03.034Z,99.99
2022-10-22T02:20:03.033Z,99.99
2022-10-22T02:21:03.090Z,99.99
2022-10-22T02:22:03.471Z,99.99
2022-10-22T02:23:03.394Z,99.99
2022-10-22T02:24:03.246Z,99.99
2022-10-22T02:25:03.528Z,99.99
2022-10-22T02:26:03.120Z,99.99
2022-10-22T02:27:03.481Z,99.99
2022-10-22T02:28:03.243Z,99.99
2022-10-22T02:29:03.171Z,99.99
2022-10-22T02:30:03.834Z,99.99
2022-10-22T02:31:03.779Z,99.99
2022-10-22T02:32:03.120Z,99.99
2022-10-22T02:33:02.679Z,99.99
2022-10-22T02:34:03.067Z,99.99
2022-10-22T02:35:02.553Z,99.99
2022-10-22T02:36:03.116Z,99.99
2022-10-22T02:37:03.465Z,99.99
2022-10-22T02:38:03.482Z,99.81
2022-10-22T02:39:03.142Z,99.61
2022-10-22T02:40:03.036Z,99.61
2022-10-22T02:41:03.018Z,99.10
2022-10-22T02:42:03.745Z,98.90
2022-10-22T02:43:03.716Z,99.30
2022-10-22T02:44:03.186Z,99.61
2022-10-22T02:45:03.683Z,99.51
2022-10-22T02:46:03.332Z,99.61
2022-10-22T02:47:03.954Z,99.51
2022-10-22T02:48:03.583Z,99.41
2022-10-22T02:49:03.447Z,99.21
2022-10-22T02:50:05.470Z,99.71
2022-10-22T02:51:03.867Z,99.71
2022-10-22T02:52:03.135Z,99.41
2022-10-22T02:53:03.039Z,98.70
2022-10-22T02:54:02.953Z,98.50
2022-10-22T02:55:02.918Z,99.41
2022-10-22T02:56:02.876Z,99.41
2022-10-22T02:57:03.397Z,99.30
2022-10-22T02:58:02.770Z,99.30
2022-10-22T02:59:02.774Z,99.61
2022-10-22T03:00:02.793Z,99.10
2022-10-22T03:01:02.876Z,99.01
2022-10-22T03:02:02.226Z,99.41
2022-10-22T03:03:02.070Z,99.30
2022-10-22T03:04:02.183Z,98.80
2022-10-22T03:05:02.141Z,98.70
2022-10-22T03:06:02.042Z,99.71
2022-10-22T03:07:02.425Z,99.91
2022-10-22T03:08:01.922Z,99.99
2022-10-22T03:09:02.337Z,99.91
2022-10-22T03:10:02.299Z,99.99
2022-10-22T03:11:02.248Z,99.99
2022-10-22T03:12:02.366Z,99.21
2022-10-22T03:13:02.248Z,98.80
2022-10-22T03:14:02.715Z,99.01
2022-10-22T03:15:02.283Z,99.05
2022-10-22T03:16:02.091Z,99.46
2022-10-22T03:17:02.108Z,99.25
2022-10-22T03:18:01.976Z,98.65
2022-10-22T03:19:01.808Z,98.24
2022-10-22T03:20:01.646Z,98.54
2022-10-22T03:21:02.167Z,98.85
2022-10-22T03:22:02.406Z,98.14
2022-10-22T03:23:02.233Z,97.73
2022-10-22T03:24:02.523Z,98.03
2022-10-22T03:25:02.267Z,97.94
2022-10-22T03:26:02.078Z,97.63
2022-10-22T03:27:02.733Z,97.83
2022-10-22T03:28:03.106Z,98.24
2022-10-22T03:29:02.902Z,97.73
2022-10-22T03:30:03.148Z,97.94
2022-10-22T03:31:02.894Z,98.03
2022-10-22T03:32:02.159Z,98.19
2022-10-22T03:33:02.072Z,98.29
2022-10-22T03:34:01.895Z,97.99
2022-10-22T03:35:02.305Z,97.28
2022-10-22T03:36:01.902Z,97.49
2022-10-22T03:37:02.438Z,97.79
2022-10-22T03:38:02.420Z,98.39
2022-10-22T03:39:02.366Z,98.60
2022-10-22T03:40:02.336Z,98.60
2022-10-22T03:41:02.288Z,98.70
2022-10-22T03:42:02.043Z,99.21
2022-10-22T03:43:01.922Z,99.41
2022-10-22T03:44:01.802Z,98.60
2022-10-22T03:45:01.911Z,99.10
2022-10-22T03:46:01.722Z,99.30
2022-10-22T03:47:02.866Z,99.81
2022-10-22T03:48:01.960Z,99.21
2022-10-22T03:49:02.316Z,98.50
2022-10-22T03:50:02.021Z,99.10
2022-10-22T03:51:01.940Z,99.30
2022-10-22T03:52:02.635Z,98.70
2022-10-22T03:53:02.501Z,99.41
2022-10-22T03:54:02.361Z,99.61
2022-10-22T03:55:02.484Z,99.51
2022-10-22T03:56:02.350Z,99.30
2022-10-22T03:57:03.000Z,99.41
2022-10-22T03:58:02.600Z,98.50
2022-10-22T03:59:02.472Z,98.19
2022-10-22T04:00:03.124Z,98.19
2022-10-22T04:01:02.906Z,97.89
2022-10-22T04:02:02.779Z,97.79
2022-10-22T04:03:03.066Z,98.19
2022-10-22T04:04:02.891Z,98.29
2022-10-22T04:05:03.250Z,98.09
2022-10-22T04:06:02.954Z,98.09
2022-10-22T04:07:02.899Z,98.29
2022-10-22T04:08:03.024Z,97.69
2022-10-22T04:09:03.568Z,97.99
2022-10-22T04:10:03.009Z,97.99
2022-10-22T04:11:03.024Z,98.19
2022-10-22T04:12:03.127Z,98.50
2022-10-22T04:13:03.312Z,98.50
2022-10-22T04:14:03.323Z,98.80
2022-10-22T04:15:02.688Z,98.50
2022-10-22T04:16:03.275Z,98.70
2022-10-22T04:17:02.244Z,98.50
2022-10-22T04:18:02.080Z,98.54
2022-10-22T04:19:01.942Z,98.09
2022-10-22T04:20:02.436Z,97.38
2022-10-22T04:21:02.235Z,97.18
2022-10-22T04:22:02.030Z,97.38
2022-10-22T04:23:01.960Z,97.38
2022-10-22T04:24:02.481Z,97.33
2022-10-22T04:25:02.064Z,97.83
2022-10-22T04:26:02.252Z,97.94
2022-10-22T04:27:02.711Z,97.23
2022-10-22T04:28:02.567Z,96.82
2022-10-22T04:29:03.043Z,97.13
2022-10-22T04:30:02.986Z,97.53
2022-10-22T04:31:02.836Z,97.02
2022-10-22T04:32:02.696Z,96.62
2022-10-22T04:33:02.613Z,96.42
2022-10-22T04:34:02.653Z,96.22
2022-10-22T04:35:02.747Z,96.82
2022-10-22T04:36:02.586Z,96.62
2022-10-22T04:37:02.636Z,96.01
2022-10-22T04:38:02.370Z,96.42
2022-10-22T04:39:02.816Z,96.51
2022-10-22T04:40:02.296Z,96.66
2022-10-22T04:41:02.921Z,96.36
2022-10-22T04:42:02.134Z,96.87
2022-10-22T04:43:01.995Z,96.46
2022-10-22T04:44:01.954Z,96.15
2022-10-22T04:45:02.403Z,96.26
2022-10-22T04:46:02.364Z,95.95
2022-10-22T04:47:02.730Z,96.87
2022-10-22T04:48:02.600Z,96.87
2022-10-22T04:49:02.502Z,97.27
2022-10-22T04:50:02.657Z,97.72
2022-10-22T04:51:02.387Z,98.33
2022-10-22T04:52:02.699Z,98.74
2022-10-22T04:53:02.387Z,98.74
2022-10-22T04:54:02.406Z,98.94
2022-10-22T04:55:03.035Z,98.94
2022-10-22T04:56:02.546Z,99.35
2022-10-22T04:57:02.562Z,98.94
2022-10-22T04:58:02.410Z,98.84
2022-10-22T04:59:02.250Z,98.94
2022-10-22T05:00:02.714Z,97.83
2022-10-22T05:01:02.547Z,97.62
2022-10-22T05:02:03.097Z,97.83
2022-10-22T05:03:02.689Z,97.83
2022-10-22T05:04:03.268Z,98.07
2022-10-22T05:05:03.468Z,97.83
2022-10-22T05:06:03.193Z,97.77
2022-10-22T05:07:02.357Z,97.52
2022-10-22T05:08:02.287Z,97.52
2022-10-22T05:09:02.274Z,97.52
2022-10-22T05:10:02.983Z,97.77
2022-10-22T05:11:02.595Z,98.07
2022-10-22T05:12:02.750Z,98.07
2022-10-22T05:13:03.135Z,97.87
2022-10-22T05:14:03.299Z,97.16
2022-10-22T05:15:02.878Z,96.75
2022-10-22T05:16:02.958Z,97.16
2022-10-22T05:17:02.483Z,96.86
2022-10-22T05:18:01.999Z,97.00
2022-10-22T05:19:02.498Z,97.00
2022-10-22T05:20:02.346Z,97.11
2022-10-22T05:21:02.599Z,96.55
2022-10-22T05:22:02.643Z,96.50
2022-10-22T05:23:02.127Z,96.50
2022-10-22T05:24:02.241Z,96.60
2022-10-22T05:25:02.121Z,97.11
2022-10-22T05:26:02.667Z,96.70
2022-10-22T05:27:02.962Z,96.80
2022-10-22T05:28:02.413Z,98.32
2022-10-22T05:29:02.799Z,98.32
2022-10-22T05:30:02.922Z,98.52
2022-10-22T05:31:03.052Z,97.71
2022-10-22T05:32:03.348Z,98.73
2022-10-22T05:33:02.808Z,98.02
2022-10-22T05:34:03.293Z,97.51
2022-10-22T05:35:03.467Z,97.51
2022-10-22T05:36:03.193Z,98.02
2022-10-22T05:37:02.836Z,97.92
2022-10-22T05:38:02.532Z,97.31
2022-10-22T05:39:02.337Z,97.41
2022-10-22T05:40:18.909Z,97.71
2022-10-22T05:41:02.331Z,97.20
2022-10-22T05:42:02.922Z,97.71
2022-10-22T05:43:02.500Z,97.31
2022-10-22T05:44:02.485Z,98.02
2022-10-22T05:45:02.793Z,98.43
2022-10-22T05:46:02.602Z,99.18
2022-10-22T05:47:03.085Z,99.99
2022-10-22T05:48:02.807Z,99.99
2022-10-22T05:49:02.829Z,99.99
2022-10-22T05:50:02.857Z,99.99
2022-10-22T05:51:02.858Z,99.99
2022-10-22T05:52:02.177Z,99.99
2022-10-22T05:53:02.829Z,99.99
2022-10-22T05:54:02.575Z,99.33
2022-10-22T05:55:02.658Z,98.63
2022-10-22T05:56:02.282Z,98.52
2022-10-22T05:57:02.673Z,98.22
2022-10-22T05:58:02.801Z,99.08
2022-10-22T06:00:02.767Z,99.49
2022-10-22T06:01:03.074Z,98.47
2022-10-22T06:02:02.051Z,97.71
2022-10-22T06:03:02.508Z,97.05
2022-10-22T06:04:02.450Z,96.64
2022-10-22T06:05:02.369Z,96.54
2022-10-22T06:06:02.697Z,96.99
2022-10-22T06:07:02.410Z,97.75
2022-10-22T06:08:02.373Z,97.96
2022-10-22T06:09:03.029Z,97.30
2022-10-22T06:10:02.922Z,97.55
2022-10-22T06:11:02.619Z,96.99
2022-10-22T06:12:02.582Z,97.20
2022-10-22T06:13:02.628Z,96.48
2022-10-22T06:14:02.981Z,96.53
2022-10-22T06:15:02.954Z,96.73
2022-10-22T06:16:02.926Z,96.83
2022-10-22T06:17:02.257Z,96.94
2022-10-22T06:18:02.038Z,96.83
2022-10-22T06:19:02.050Z,96.63
2022-10-22T06:20:01.962Z,96.53
2022-10-22T06:21:01.985Z,96.33
2022-10-22T06:22:02.591Z,96.33
2022-10-22T06:23:03.024Z,96.23
2022-10-22T06:24:02.993Z,96.23
2022-10-22T06:25:02.998Z,96.12
2022-10-22T06:26:02.736Z,96.23
2022-10-22T06:27:02.283Z,96.12
2022-10-22T06:28:02.733Z,95.92
2022-10-22T06:29:02.437Z,96.02
2022-10-22T06:30:02.729Z,95.51
2022-10-22T06:31:02.390Z,95.72
2022-10-22T06:32:02.761Z,95.92
2022-10-22T06:33:02.624Z,95.62
2022-10-22T06:34:02.735Z,95.62
2022-10-22T06:35:02.963Z,95.51
2022-10-22T06:36:06.679Z,95.62
2022-10-22T06:37:02.497Z,96.07
2022-10-22T06:38:02.728Z,96.27
2022-10-22T06:39:02.722Z,96.58
2022-10-22T06:40:02.691Z,96.98
2022-10-22T06:41:02.729Z,96.58
2022-10-22T06:42:02.805Z,96.37
2022-10-22T06:43:02.695Z,96.37
2022-10-22T06:44:02.996Z,96.98
2022-10-22T06:46:02.897Z,98.30
2022-10-22T06:47:02.925Z,97.19
2022-10-22T06:48:03.459Z,96.83
2022-10-22T06:49:02.679Z,97.75
2022-10-22T06:50:03.363Z,97.34
2022-10-22T06:51:03.093Z,97.24
2022-10-22T06:52:03.038Z,97.24
2022-10-22T06:53:03.024Z,97.75
2022-10-22T06:54:03.016Z,97.96
2022-10-22T06:55:03.086Z,98.97
2022-10-22T06:56:03.421Z,99.88
2022-10-22T06:57:02.256Z,99.38
2022-10-22T06:58:02.050Z,99.68
2022-10-22T06:59:02.062Z,99.84
2022-10-22T07:00:02.067Z,99.74
2022-10-22T07:01:02.196Z,99.74
2022-10-22T07:02:02.575Z,99.99
2022-10-22T07:03:02.599Z,99.99
2022-10-22T07:04:02.679Z,99.99
2022-10-22T07:05:02.509Z,99.99
2022-10-22T07:06:02.615Z,99.99
2022-10-22T07:07:02.686Z,99.99
2022-10-22T07:08:03.012Z,99.89
2022-10-22T07:09:02.957Z,99.49
2022-10-22T07:10:02.713Z,99.58
2022-10-22T07:11:02.694Z,99.18
2022-10-22T07:12:02.673Z,99.54
2022-10-22T07:13:02.490Z,99.54
2022-10-22T07:14:02.416Z,99.99
2022-10-22T07:15:02.425Z,99.99
2022-10-22T07:16:02.466Z,99.99
2022-10-22T07:17:02.173Z,99.99
2022-10-22T07:18:02.165Z,99.99
2022-10-22T07:19:02.231Z,99.99
2022-10-22T07:20:02.221Z,99.99
2022-10-22T07:21:02.142Z,99.99
2022-10-22T07:22:02.845Z,99.99
2022-10-22T07:23:02.762Z,99.99
2022-10-22T07:24:02.595Z,99.99
2022-10-22T07:25:06.534Z,99.99
2022-10-22T07:26:02.818Z,99.99
2022-10-22T07:27:03.300Z,99.99
2022-10-22T07:28:02.873Z,99.99
2022-10-22T07:29:02.761Z,99.99
2022-10-22T07:30:02.965Z,99.99
2022-10-22T07:31:03.092Z,99.99
2022-10-22T07:32:02.502Z,99.99
2022-10-22T07:33:02.580Z,99.99
2022-10-22T07:34:02.373Z,99.99
2022-10-22T07:35:02.759Z,99.80
2022-10-22T07:36:02.543Z,99.99
2022-10-22T07:37:02.647Z,99.91
2022-10-22T07:38:02.243Z,99.70
2022-10-22T07:39:02.360Z,99.50
2022-10-22T07:40:03.873Z,99.50
2022-10-22T07:41:02.633Z,99.99
2022-10-22T07:42:02.809Z,99.99
2022-10-22T07:43:02.731Z,99.99
2022-10-22T07:44:02.929Z,99.99
2022-10-22T07:45:02.776Z,99.99
2022-10-22T07:46:02.845Z,99.99
2022-10-22T07:47:03.013Z,99.99
2022-10-22T07:48:02.770Z,99.60
2022-10-22T07:49:03.115Z,99.99
2022-10-22T07:50:02.723Z,99.99
2022-10-22T07:51:02.809Z,99.99
2022-10-22T07:52:02.988Z,99.99
2022-10-22T07:53:02.987Z,99.99
2022-10-22T07:54:03.082Z,99.99
2022-10-22T07:55:03.419Z,99.99
2022-10-22T07:56:02.804Z,99.99
2022-10-22T07:57:02.420Z,99.99
2022-10-22T07:58:02.114Z,99.99
2022-10-22T08:00:02.169Z,99.99
2022-10-22T08:01:02.332Z,99.99
2022-10-22T08:02:03.149Z,99.99
2022-10-22T08:03:03.146Z,99.99
2022-10-22T08:04:02.675Z,99.99
2022-10-22T08:05:02.796Z,99.99
2022-10-22T08:06:03.082Z,99.99
2022-10-22T08:07:03.217Z,99.99
2022-10-22T08:08:03.163Z,99.99
2022-10-22T08:09:03.159Z,99.99
2022-10-22T08:10:03.324Z,99.99
2022-10-22T08:11:03.295Z,99.99
2022-10-22T08:12:02.296Z,99.99
2022-10-22T08:13:02.456Z,99.99
2022-10-22T08:14:02.310Z,99.99
2022-10-22T08:15:02.607Z,99.99
2022-10-22T08:16:02.767Z,99.99
2022-10-22T08:17:02.645Z,99.99
2022-10-22T08:18:02.746Z,99.99
2022-10-22T08:19:03.169Z,99.99
2022-10-22T08:20:02.888Z,99.99
2022-10-22T08:21:02.935Z,99.99
2022-10-22T08:22:02.723Z,99.99
2022-10-22T08:23:02.515Z,99.99
2022-10-22T08:24:02.596Z,99.99
2022-10-22T08:25:02.684Z,99.99
2022-10-22T08:26:02.765Z,99.99
2022-10-22T08:27:03.158Z,99.99
2022-10-22T08:28:02.529Z,99.99
2022-10-22T08:29:02.724Z,99.99
2022-10-22T08:30:02.559Z,99.99
2022-10-22T08:31:02.650Z,99.99
2022-10-22T08:32:03.397Z,99.99
2022-10-22T08:33:02.907Z,99.99
2022-10-22T08:34:03.099Z,99.99
2022-10-22T08:35:03.151Z,99.88
2022-10-22T08:36:03.395Z,99.88
2022-10-22T08:37:02.881Z,99.18
2022-10-22T08:38:02.646Z,98.47
2022-10-22T08:39:02.865Z,98.97
2022-10-22T08:40:02.793Z,99.07
2022-10-22T08:41:02.297Z,98.97
2022-10-22T08:42:02.829Z,99.22
2022-10-22T08:43:02.930Z,99.02
2022-10-22T08:44:03.172Z,98.32
2022-10-22T08:45:02.871Z,97.21
2022-10-22T08:46:03.088Z,96.50
2022-10-22T08:47:02.076Z,96.91
2022-10-22T08:48:02.210Z,96.70
2022-10-22T08:49:02.276Z,95.85
2022-10-22T08:50:02.471Z,95.55
2022-10-22T08:51:02.728Z,94.44
2022-10-22T08:52:03.128Z,93.48
2022-10-22T08:53:02.534Z,93.17
2022-10-22T08:54:02.875Z,93.57
2022-10-22T08:55:02.630Z,93.63
2022-10-22T08:56:02.798Z,94.54
2022-10-22T08:57:02.841Z,94.74
2022-10-22T08:58:03.374Z,95.04
2022-10-22T08:59:02.806Z,92.72
2022-10-22T09:00:03.071Z,92.98
2022-10-22T09:01:02.824Z,94.19
2022-10-22T09:02:02.511Z,94.59
2022-10-22T09:03:02.266Z,94.19
2022-10-22T09:04:02.679Z,93.69
2022-10-22T09:05:02.676Z,94.15
2022-10-22T09:06:02.665Z,93.85
2022-10-22T09:07:02.677Z,92.13
2022-10-22T09:08:03.183Z,91.93
2022-10-22T09:09:03.134Z,90.82
2022-10-22T09:10:02.916Z,91.02
2022-10-22T09:11:03.138Z,91.02
2022-10-22T09:12:02.927Z,90.92
2022-10-22T09:13:03.266Z,90.62
2022-10-22T09:14:03.590Z,90.46
2022-10-22T09:15:03.493Z,90.32
2022-10-22T09:16:03.088Z,90.72
2022-10-22T09:17:03.038Z,90.32
2022-10-22T09:18:03.459Z,90.42
2022-10-22T09:19:03.296Z,90.62
2022-10-22T09:20:03.181Z,89.71
2022-10-22T09:21:03.141Z,89.91
2022-10-22T09:22:02.683Z,89.71
2022-10-22T09:23:03.181Z,90.11
2022-10-22T09:24:02.891Z,89.71
2022-10-22T09:25:02.977Z,89.61
2022-10-22T09:26:03.001Z,89.51
2022-10-22T09:27:03.310Z,89.91
2022-10-22T09:28:03.352Z,90.72
2022-10-22T09:29:03.094Z,90.11
2022-10-22T09:30:03.127Z,90.01
2022-10-22T09:31:03.697Z,88.81
2022-10-22T09:32:02.273Z,88.81
2022-10-22T09:33:02.325Z,88.90
2022-10-22T09:34:02.391Z,88.40
2022-10-22T09:35:02.426Z,88.60
2022-10-22T09:36:02.538Z,88.70
2022-10-22T09:37:02.508Z,89.11
2022-10-22T09:38:02.585Z,89.01
2022-10-22T09:39:02.598Z,88.90
2022-10-22T09:40:02.602Z,87.90
2022-10-22T09:41:02.312Z,88.70
2022-10-22T09:42:02.978Z,88.60
2022-10-22T09:43:02.918Z,88.20
2022-10-22T09:44:03.114Z,88.70
2022-10-22T09:45:03.069Z,88.10
2022-10-22T09:46:03.143Z,88.00
2022-10-22T09:47:02.642Z,88.20
2022-10-22T09:48:02.855Z,88.20
2022-10-22T09:49:02.655Z,88.40
2022-10-22T09:50:02.645Z,88.90
2022-10-22T09:51:02.653Z,89.31
2022-10-22T09:52:02.747Z,89.31
2022-10-22T09:53:03.194Z,89.11
2022-10-22T09:54:02.628Z,88.70
2022-10-22T09:55:02.699Z,89.47
2022-10-22T09:56:02.977Z,88.96
2022-10-22T09:57:02.931Z,88.76
2022-10-22T09:58:03.361Z,89.06
2022-10-22T09:59:02.789Z,88.66
2022-10-22T10:00:03.404Z,88.06
2022-10-22T10:01:03.545Z,87.76
2022-10-22T10:02:13.705Z,88.56
2022-10-22T10:03:03.357Z,87.76
2022-10-22T10:04:06.956Z,87.85
2022-10-22T10:05:03.126Z,87.85
2022-10-22T10:06:05.927Z,87.76
2022-10-22T10:07:02.799Z,88.26
2022-10-22T10:08:02.606Z,88.36
2022-10-22T10:09:02.505Z,88.82
2022-10-22T10:10:02.282Z,87.92
2022-10-22T10:11:02.849Z,87.62
2022-10-22T10:12:02.818Z,87.92
2022-10-22T10:13:03.217Z,88.12
2022-10-22T10:14:02.995Z,87.82
2022-10-22T10:15:02.948Z,87.21
2022-10-22T10:16:03.331Z,88.02
2022-10-22T10:17:02.909Z,88.02
2022-10-22T10:18:03.038Z,87.92
2022-10-22T10:19:03.345Z,87.51
2022-10-22T10:20:04.232Z,88.32
2022-10-22T10:21:03.432Z,88.38
2022-10-22T10:22:03.090Z,88.28
2022-10-22T10:23:03.496Z,88.68
2022-10-22T10:24:03.525Z,88.18
2022-10-22T10:25:03.081Z,86.66
2022-10-22T10:26:03.765Z,86.97
2022-10-22T10:27:03.102Z,86.26
2022-10-22T10:28:03.048Z,87.07
2022-10-22T10:29:03.151Z,86.06
2022-10-22T10:30:02.893Z,85.16
2022-10-22T10:31:03.005Z,86.26
2022-10-22T10:32:03.090Z,86.77
2022-10-22T10:33:02.980Z,85.76
2022-10-22T10:34:02.999Z,85.66
2022-10-22T10:35:03.058Z,86.16
2022-10-22T10:36:02.805Z,84.85
2022-10-22T10:37:02.760Z,85.46
2022-10-22T10:38:02.862Z,85.16
2022-10-22T10:39:02.951Z,86.16
2022-10-22T10:40:03.024Z,86.36
2022-10-22T10:41:02.733Z,86.52
2022-10-22T10:42:03.455Z,87.02
2022-10-22T10:43:03.473Z,85.31
2022-10-22T10:44:03.498Z,85.82
2022-10-22T10:45:03.624Z,85.31
2022-10-22T10:46:03.625Z,85.31
2022-10-22T10:47:02.764Z,85.62
2022-10-22T10:48:02.863Z,85.22
2022-10-22T10:49:02.979Z,84.61
2022-10-22T10:50:02.765Z,85.62
2022-10-22T10:51:02.845Z,85.52
2022-10-22T10:52:03.626Z,86.22
2022-10-22T10:53:03.502Z,85.52
2022-10-22T10:54:03.609Z,84.61
2022-10-22T10:55:03.310Z,84.51
2022-10-22T10:56:03.783Z,84.97
2022-10-22T10:57:03.586Z,84.77
2022-10-22T10:58:03.476Z,85.48
2022-10-22T10:59:03.602Z,85.98
2022-10-22T11:00:03.533Z,86.38
2022-10-22T11:01:03.614Z,86.48
2022-10-22T11:02:02.929Z,85.33
2022-10-22T11:03:02.972Z,85.84
2022-10-22T11:04:03.097Z,85.84
2022-10-22T11:05:02.636Z,85.84
2022-10-22T11:06:02.933Z,85.24
2022-10-22T11:07:10.942Z,85.03
2022-10-22T11:08:02.849Z,84.74
2022-10-22T11:09:03.053Z,84.23
2022-10-22T11:10:03.092Z,83.43
2022-10-22T11:11:03.050Z,83.63
2022-10-22T11:12:03.571Z,83.63
2022-10-22T11:13:03.135Z,83.43
2022-10-22T11:14:03.542Z,83.03
2022-10-22T11:15:03.504Z,84.83
2022-10-22T11:16:03.518Z,84.53
2022-10-22T11:17:03.678Z,84.23
2022-10-22T11:18:03.553Z,83.23
2022-10-22T11:19:03.874Z,83.53
2022-10-22T11:20:03.761Z,84.03
2022-10-22T11:21:03.865Z,83.43
2022-10-22T11:22:03.394Z,83.03
2022-10-22T11:23:19.325Z,83.53
2022-10-22T11:24:03.028Z,83.23
2022-10-22T11:25:03.277Z,83.63
2022-10-22T11:26:03.377Z,84.03
2022-10-22T11:27:02.946Z,83.39
2022-10-22T11:28:09.100Z,83.29
2022-10-22T11:29:03.331Z,82.98
2022-10-22T11:30:03.273Z,83.18
2022-10-22T11:31:03.119Z,82.78
2022-10-22T11:32:03.847Z,81.88
2022-10-22T11:33:03.946Z,82.92
2022-10-22T11:34:09.775Z,83.99
2022-10-22T11:35:03.886Z,84.09
2022-10-22T11:36:03.838Z,83.39
2022-10-22T11:37:03.905Z,84.09
2022-10-22T11:38:03.975Z,84.75
2022-10-22T11:39:03.765Z,85.05
2022-10-22T11:40:03.787Z,84.05
2022-10-22T11:41:03.714Z,84.11
2022-10-22T11:42:03.418Z,84.71
2022-10-22T11:43:03.403Z,84.21
2022-10-22T11:44:03.058Z,84.47
2022-10-22T11:45:03.055Z,84.37
2022-10-22T11:46:03.127Z,83.27
2022-10-22T11:47:03.654Z,82.46
2022-10-22T11:48:03.415Z,80.26
2022-10-22T11:49:03.304Z,81.40
2022-10-22T11:50:03.470Z,82.81
2022-10-22T11:51:03.365Z,83.01
2022-10-22T11:52:05.020Z,83.11
2022-10-22T11:53:03.055Z,83.17
2022-10-22T11:54:02.913Z,83.07
2022-10-22T11:55:02.953Z,81.96
2022-10-22T11:56:03.052Z,82.26
2022-10-22T11:57:03.806Z,82.46
2022-10-22T11:58:03.526Z,82.26
2022-10-22T11:59:03.787Z,82.67
2022-10-22T12:00:03.521Z,83.37
2022-10-22T12:01:03.646Z,83.63
2022-10-22T12:02:02.452Z,83.03
2022-10-22T12:03:02.533Z,82.23
2022-10-22T12:04:02.702Z,81.82
2022-10-22T12:05:02.928Z,81.42
2022-10-22T12:06:03.014Z,81.73
2022-10-22T12:07:03.109Z,79.12
2022-10-22T12:08:03.799Z,80.52
2022-10-22T12:09:03.440Z,79.82
2022-10-22T12:10:03.492Z,80.32
2022-10-22T12:11:03.494Z,79.52
2022-10-22T12:12:03.390Z,80.12
2022-10-22T12:13:02.435Z,81.02
2022-10-22T12:14:02.707Z,81.42
2022-10-22T12:15:02.565Z,81.12
2022-10-22T12:16:02.639Z,80.22
2022-10-22T12:17:02.644Z,80.38
2022-10-22T12:18:03.211Z,78.52
2022-10-22T12:19:03.113Z,79.42
2022-10-22T12:20:03.296Z,79.12
2022-10-22T12:21:03.108Z,78.92
2022-10-22T12:22:02.991Z,78.75
2022-10-22T12:23:03.160Z,78.75
2022-10-22T12:24:03.740Z,79.75
2022-10-22T12:25:03.784Z,79.16
2022-10-22T12:26:03.355Z,79.16
2022-10-22T12:27:03.256Z,79.16
2022-10-22T12:28:02.469Z,80.36
2022-10-22T12:29:03.094Z,79.75
2022-10-22T12:30:02.821Z,79.25
2022-10-22T12:31:02.438Z,79.46
2022-10-22T12:32:03.061Z,80.26
2022-10-22T12:33:02.745Z,81.06
2022-10-22T12:34:02.800Z,81.56
2022-10-22T12:35:02.777Z,82.23
2022-10-22T12:36:02.738Z,81.52
2022-10-22T12:37:02.592Z,81.82
2022-10-22T12:38:03.040Z,81.59
2022-10-22T12:39:03.119Z,82.49
2022-10-22T12:40:03.144Z,81.35
2022-10-22T12:41:03.195Z,81.04
2022-10-22T12:42:03.070Z,81.15
2022-10-22T12:43:02.794Z,79.91
2022-10-22T12:44:02.494Z,77.80
2022-10-22T12:45:02.977Z,78.20
2022-10-22T12:46:03.011Z,78.70
2022-10-22T12:47:02.761Z,78.30
2022-10-22T12:48:03.515Z,77.10
2022-10-22T12:49:03.144Z,78.30
2022-10-22T12:50:03.572Z,77.91
2022-10-22T12:51:03.593Z,77.00
2022-10-22T12:52:03.251Z,78.41
2022-10-22T12:53:02.918Z,78.67
2022-10-22T12:54:02.872Z,77.47
2022-10-22T12:55:02.829Z,76.67
2022-10-22T12:56:02.729Z,76.03